createdAt,value
2019-04-06T00:02:31.253Z,100515.92
2019-04-06T00:05:00.092Z,100509.93
2019-04-06T00:07:28.590Z,100511.80
2019-04-06T00:09:57.086Z,100510.77
2019-04-06T00:12:26.860Z,100510.77
2019-04-06T00:14:55.343Z,100504.09
2019-04-06T00:17:23.839Z,100498.55
2019-04-06T00:19:52.317Z,100506.34
2019-04-06T00:22:20.855Z,100502.28
2019-04-06T00:24:49.677Z,100505.71
2019-04-06T00:27:18.177Z,100514.34
2019-04-06T00:29:46.654Z,100518.11
2019-04-06T00:32:26.508Z,100511.27
2019-04-06T00:34:54.990Z,100519.98
2019-04-06T00:37:23.849Z,100522.27
2019-04-06T00:39:52.602Z,100525.98
2019-04-06T00:42:21.103Z,100523.16
2019-04-06T00:44:49.907Z,100524.72
2019-04-06T00:47:18.424Z,100528.27
2019-04-06T00:49:47.261Z,100528.57
2019-04-06T00:52:15.756Z,100529.63
2019-04-06T00:54:44.247Z,100529.16
2019-04-06T00:57:13.350Z,100531.23
2019-04-06T00:59:42.090Z,100529.80
2019-04-06T01:02:10.904Z,100534.98
2019-04-06T01:04:39.420Z,100530.27
2019-04-06T01:07:07.920Z,100537.23
2019-04-06T01:09:36.716Z,100541.42
2019-04-06T01:12:05.269Z,100539.05
2019-04-06T01:14:33.759Z,100539.95
2019-04-06T01:17:02.259Z,100549.92
2019-04-06T01:19:30.734Z,100552.97
2019-04-06T01:21:59.291Z,100554.32
2019-04-06T01:24:27.775Z,100566.80
2019-04-06T01:26:56.510Z,100568.23
2019-04-06T01:29:24.993Z,100564.68
2019-04-06T01:31:53.508Z,100569.28
2019-04-06T01:34:22.272Z,100568.74
2019-04-06T01:36:50.787Z,100568.56
2019-04-06T01:39:19.275Z,100562.82
2019-04-06T01:41:47.747Z,100560.49
2019-04-06T01:44:16.250Z,100550.05
2019-04-06T01:46:45.003Z,100561.03
2019-04-06T01:49:13.499Z,100555.08
2019-04-06T01:51:42.156Z,100554.06
2019-04-06T01:54:10.572Z,100551.70
2019-04-06T01:56:39.023Z,100550.36
2019-04-06T01:59:07.615Z,100550.44
2019-04-06T02:01:43.338Z,100553.27
2019-04-06T02:04:11.838Z,100557.88
2019-04-06T02:06:40.333Z,100558.05
2019-04-06T02:09:08.813Z,100549.80
2019-04-06T02:11:37.293Z,100545.99
2019-04-06T02:14:05.774Z,100545.61
2019-04-06T02:16:34.263Z,100545.10
2019-04-06T02:19:02.826Z,100545.10
2019-04-06T02:21:31.304Z,100537.83
2019-04-06T02:23:59.793Z,100532.08
2019-04-06T02:26:30.889Z,100533.17
2019-04-06T02:28:58.615Z,100538.97
2019-04-06T02:31:44.856Z,100541.72
2019-04-06T02:34:31.492Z,100538.50
2019-04-06T02:37:07.917Z,100538.97
2019-04-06T02:39:42.741Z,100536.39
2019-04-06T02:42:20.856Z,100525.56
2019-04-06T02:44:49.326Z,100535.21
2019-04-06T02:47:17.877Z,100526.28
2019-04-06T02:49:46.346Z,100524.39
2019-04-06T02:52:14.841Z,100514.28
2019-04-06T02:54:43.291Z,100520.33
2019-04-06T02:57:11.823Z,100512.08
2019-04-06T02:59:40.301Z,100515.33
2019-04-06T03:02:08.774Z,100505.86
2019-04-06T03:04:37.271Z,100505.32
2019-04-06T03:07:05.822Z,100505.66
2019-04-06T03:09:34.391Z,100501.80
2019-04-06T03:12:02.999Z,100505.52
2019-04-06T03:14:31.746Z,100506.45
2019-04-06T03:17:00.248Z,100504.25
2019-04-06T03:19:28.738Z,100503.74
2019-04-06T03:21:57.513Z,100501.72
2019-04-06T03:24:26.002Z,100495.50
2019-04-06T03:27:02.138Z,100502.77
2019-04-06T03:29:24.692Z,100499.43
2019-04-06T03:31:53.176Z,100498.33
2019-04-06T03:34:22.522Z,100500.95
2019-04-06T03:36:51.439Z,100496.84
2019-04-06T03:39:19.993Z,100499.98
2019-04-06T03:41:48.521Z,100495.21
2019-04-06T03:44:16.994Z,100496.90
2019-04-06T03:46:45.540Z,100501.84
2019-04-06T03:49:14.181Z,100502.95
2019-04-06T03:51:43.081Z,100494.19
2019-04-06T03:54:11.563Z,100500.95
2019-04-06T03:56:40.058Z,100495.88
2019-04-06T03:59:08.556Z,100502.64
2019-04-06T04:01:37.295Z,100505.86
2019-04-06T04:04:05.785Z,100509.48
2019-04-06T04:06:34.259Z,100513.28
2019-04-06T04:09:03.164Z,100512.31
2019-04-06T04:11:31.927Z,100507.11
2019-04-06T04:14:00.745Z,100511.33
2019-04-06T04:16:29.206Z,100505.63
2019-04-06T04:18:57.712Z,100501.94
2019-04-06T04:21:26.212Z,100503.37
2019-04-06T04:23:54.701Z,100504.31
2019-04-06T04:26:23.390Z,100496.27
2019-04-06T04:28:51.926Z,100498.20
2019-04-06T04:31:20.407Z,100500.84
2019-04-06T04:33:49.179Z,100503.88
2019-04-06T04:36:17.964Z,100498.27
2019-04-06T04:38:46.749Z,100499.61
2019-04-06T04:41:15.264Z,100506.72
2019-04-06T04:43:43.730Z,100507.35
2019-04-06T04:46:12.195Z,100513.60
2019-04-06T04:48:40.953Z,100510.70
2019-04-06T04:51:09.563Z,100513.91
2019-04-06T04:53:38.032Z,100507.86
2019-04-06T04:56:06.587Z,100516.69
2019-04-06T04:58:35.072Z,100521.76
2019-04-06T05:01:03.811Z,100521.83
2019-04-06T05:03:32.294Z,100521.19
2019-04-06T05:06:01.272Z,100521.39
2019-04-06T05:08:29.718Z,100517.47
2019-04-06T05:10:58.177Z,100514.56
2019-04-06T05:13:26.695Z,100516.12
2019-04-06T05:16:14.866Z,100512.06
2019-04-06T05:18:43.585Z,100512.23
2019-04-06T05:21:12.229Z,100514.23
2019-04-06T05:23:40.875Z,100509.87
2019-04-06T05:26:09.576Z,100512.57
2019-04-06T05:28:38.061Z,100518.24
2019-04-06T05:31:06.559Z,100510.49
2019-04-06T05:33:35.397Z,100522.41
2019-04-06T05:36:04.218Z,100518.95
2019-04-06T05:38:32.690Z,100518.67
2019-04-06T05:41:01.166Z,100515.20
2019-04-06T05:43:29.698Z,100523.57
2019-04-06T05:45:58.117Z,100525.48
2019-04-06T05:48:26.742Z,100521.25
2019-04-06T05:50:55.183Z,100520.59
2019-04-06T05:53:23.678Z,100526.41
2019-04-06T05:55:52.397Z,100519.69
2019-04-06T05:58:21.034Z,100534.83
2019-04-06T06:00:49.523Z,100532.70
2019-04-06T06:03:18.109Z,100528.36
2019-04-06T06:05:46.588Z,100534.14
2019-04-06T06:08:15.113Z,100531.68
2019-04-06T06:10:43.559Z,100534.52
2019-04-06T06:13:12.118Z,100536.50
2019-04-06T06:15:40.604Z,100528.41
2019-04-06T06:18:09.092Z,100533.34
2019-04-06T06:20:37.814Z,100535.77
2019-04-06T06:23:06.338Z,100541.51
2019-04-06T06:25:34.858Z,100540.16
2019-04-06T06:28:13.868Z,100533.56
2019-04-06T06:30:33.762Z,100536.30
2019-04-06T06:33:02.267Z,100532.23
2019-04-06T06:35:30.986Z,100528.55
2019-04-06T06:37:59.492Z,100534.70
2019-04-06T06:40:28.179Z,100531.87
2019-04-06T06:42:56.693Z,100532.63
2019-04-06T06:45:25.252Z,100526.38
2019-04-06T06:47:53.742Z,100527.53
2019-04-06T06:50:22.547Z,100526.08
2019-04-06T06:52:51.051Z,100524.72
2019-04-06T06:55:19.558Z,100525.14
2019-04-06T06:57:48.063Z,100517.84
2019-04-06T07:00:17.022Z,100516.33
2019-04-06T07:02:45.513Z,100527.91
2019-04-06T07:05:14.008Z,100531.26
2019-04-06T07:07:42.757Z,100528.56
2019-04-06T07:10:11.583Z,100531.00
2019-04-06T07:12:40.041Z,100524.05
2019-04-06T07:15:09.295Z,100434.78
2019-04-06T07:17:38.098Z,100523.84
2019-04-06T07:20:07.700Z,100518.59
2019-04-06T07:22:36.765Z,100530.75
2019-04-06T07:25:05.802Z,100530.32
2019-04-06T07:27:34.318Z,100529.95
2019-04-06T07:30:02.798Z,100532.11
2019-04-06T07:32:31.391Z,100539.03
2019-04-06T07:34:59.870Z,100541.31
2019-04-06T07:37:28.365Z,100534.25
2019-04-06T07:39:56.821Z,100533.55
2019-04-06T07:42:25.325Z,100541.06
2019-04-06T07:44:53.790Z,100539.91
2019-04-06T07:47:22.563Z,100535.20
2019-04-06T07:49:51.119Z,100529.55
2019-04-06T07:52:19.698Z,100540.62
2019-04-06T07:54:48.125Z,100538.45
2019-04-06T07:57:16.616Z,100536.13
2019-04-06T07:59:45.139Z,100536.88
2019-04-06T08:02:13.641Z,100534.89
2019-04-06T08:04:42.409Z,100533.41
2019-04-06T08:07:11.197Z,100530.39
2019-04-06T08:09:39.881Z,100524.34
2019-04-06T08:12:08.381Z,100518.03
2019-04-06T08:14:37.171Z,100509.55
2019-04-06T08:17:05.663Z,100509.23
2019-04-06T08:19:34.147Z,100511.41
2019-04-06T08:22:02.639Z,100512.55
2019-04-06T08:24:31.124Z,100522.45
2019-04-06T08:26:59.601Z,100519.70
2019-04-06T08:29:28.085Z,100517.28
2019-04-06T08:31:56.704Z,100518.00
2019-04-06T08:34:25.192Z,100522.27
2019-04-06T08:36:53.683Z,100512.52
2019-04-06T08:39:22.222Z,100496.09
2019-04-06T08:41:51.224Z,100508.48
2019-04-06T08:44:19.752Z,100505.05
2019-04-06T08:46:48.582Z,100508.61
2019-04-06T08:49:17.028Z,100505.05
2019-04-06T08:51:45.512Z,100502.14
2019-04-06T08:54:14.103Z,100510.07
2019-04-06T08:56:42.654Z,100514.20
2019-04-06T08:59:13.173Z,100512.69
2019-04-06T09:01:41.717Z,100513.93
2019-04-06T09:04:10.254Z,100519.61
2019-04-06T09:06:38.759Z,100520.08
2019-04-06T09:09:07.521Z,100515.86
2019-04-06T09:11:36.018Z,100512.27
2019-04-06T09:14:04.638Z,100513.85
2019-04-06T09:16:33.234Z,100508.85
2019-04-06T09:19:01.737Z,100509.13
2019-04-06T09:21:30.230Z,100511.18
2019-04-06T09:23:59.294Z,100515.33
2019-04-06T09:26:27.786Z,100515.89
2019-04-06T09:28:56.298Z,100514.01
2019-04-06T09:31:24.795Z,100509.28
2019-04-06T09:33:53.259Z,100513.08
2019-04-06T09:36:22.081Z,100510.06
2019-04-06T09:38:50.822Z,100508.25
2019-04-06T09:41:19.581Z,100509.44
2019-04-06T09:43:48.115Z,100507.66
2019-04-06T09:46:26.956Z,100504.02
2019-04-06T09:49:13.690Z,100503.56
2019-04-06T09:51:59.674Z,100504.61
2019-04-06T09:54:46.104Z,100503.70
2019-04-06T09:57:21.947Z,100504.05
2019-04-06T09:59:56.168Z,100502.70
2019-04-06T10:02:43.714Z,100497.38
2019-04-06T10:05:31.238Z,100500.06
2019-04-06T10:08:34.207Z,100492.30
2019-04-06T10:11:11.576Z,100490.36
2019-04-06T10:14:17.512Z,100483.41
2019-04-06T10:16:58.292Z,100489.18
2019-04-06T10:19:44.441Z,100482.91
2019-04-06T10:22:31.911Z,100486.28
2019-04-06T10:25:28.736Z,100480.47
2019-04-06T10:28:19.911Z,100478.13
2019-04-06T10:31:06.291Z,100469.76
2019-04-06T10:33:41.146Z,100467.72
2019-04-06T10:36:15.640Z,100469.37
2019-04-06T10:38:59.797Z,100464.01
2019-04-06T10:41:53.377Z,100462.66
2019-04-06T10:44:37.630Z,100457.99
2019-04-06T10:47:30.936Z,100465.30
2019-04-06T10:50:08.069Z,100460.37
2019-04-06T10:52:58.407Z,100455.67
2019-04-06T10:55:47.824Z,100455.69
2019-04-06T10:58:28.933Z,100455.64
2019-04-06T11:01:19.548Z,100464.57
2019-04-06T11:03:56.480Z,100464.13
2019-04-06T11:06:49.533Z,100459.87
2019-04-06T11:09:37.252Z,100460.22
2019-04-06T11:12:43.283Z,100459.68
2019-04-06T11:15:21.644Z,100457.81
2019-04-06T11:18:04.670Z,100452.14
2019-04-06T11:20:46.681Z,100450.09
2019-04-06T11:23:43.080Z,100449.44
2019-04-06T11:26:36.610Z,100449.85
2019-04-06T11:29:18.875Z,100453.27
2019-04-06T11:32:03.731Z,100444.58
2019-04-06T11:34:46.180Z,100437.50
2019-04-06T11:37:34.878Z,100436.59
2019-04-06T11:40:22.761Z,100439.41
2019-04-06T11:43:07.004Z,100437.20
2019-04-06T11:45:47.971Z,100440.93
2019-04-06T11:48:33.035Z,100438.11
2019-04-06T11:51:16.672Z,100433.59
2019-04-06T11:54:07.236Z,100424.28
2019-04-06T11:56:43.760Z,100438.13
2019-04-06T11:59:22.967Z,100424.92
2019-04-06T12:01:59.199Z,100422.63
2019-04-06T12:04:59.321Z,100420.08
2019-04-06T12:07:55.746Z,100421.83
2019-04-06T12:10:43.114Z,100427.81
2019-04-06T12:13:23.781Z,100420.12
2019-04-06T12:16:10.270Z,100412.80
2019-04-06T12:18:58.272Z,100424.72
2019-04-06T12:21:49.115Z,100417.09
2019-04-06T12:24:24.699Z,100417.41
2019-04-06T12:27:06.686Z,100413.69
2019-04-06T12:30:00.042Z,100422.53
2019-04-06T12:32:50.859Z,100419.26
2019-04-06T12:35:31.714Z,100418.74
2019-04-06T12:38:17.823Z,100421.28
2019-04-06T12:41:08.777Z,100449.64
2019-04-06T12:43:59.134Z,100443.05
2019-04-06T12:46:45.499Z,100451.80
2019-04-06T12:49:39.793Z,100439.08
2019-04-06T12:52:21.176Z,100437.09
2019-04-06T12:55:07.517Z,100431.84
2019-04-06T12:57:54.148Z,100433.73
2019-04-06T13:04:47.753Z,100422.11
2019-04-06T13:07:41.175Z,100430.33
2019-04-06T13:10:31.528Z,100425.48
2019-04-06T13:13:09.330Z,100425.26
2019-04-06T13:15:55.345Z,100425.91
2019-04-06T13:18:49.008Z,100420.39
2019-04-06T13:21:51.668Z,100414.09
2019-04-06T13:24:45.500Z,100410.78
2019-04-06T13:27:23.881Z,100413.77
2019-04-06T13:30:04.260Z,100411.55
2019-04-06T13:32:49.235Z,100401.94
2019-04-06T13:35:24.233Z,100406.36
2019-04-06T13:38:07.242Z,100408.34
2019-04-06T13:41:03.918Z,100408.43
2019-04-06T13:44:00.610Z,100404.86
2019-04-06T13:46:36.698Z,100402.97
2019-04-06T13:49:11.430Z,100402.70
2019-04-06T13:52:11.409Z,100406.34
2019-04-06T13:55:02.090Z,100403.32
2019-04-06T13:57:45.027Z,100397.84
2019-04-06T14:00:32.370Z,100404.20
2019-04-06T14:03:31.898Z,100395.94
2019-04-06T14:06:21.667Z,100394.36
2019-04-06T14:09:18.894Z,100385.30
2019-04-06T14:11:53.779Z,100387.25
2019-04-06T14:14:35.733Z,100389.18
2019-04-06T14:17:32.641Z,100384.48
2019-04-06T14:20:14.199Z,100387.23
2019-04-06T14:23:13.854Z,100382.26
2019-04-06T14:26:03.575Z,100386.39
2019-04-06T14:28:50.697Z,100380.92
2019-04-06T14:31:36.940Z,100382.05
2019-04-06T14:34:18.548Z,100385.09
2019-04-06T14:36:55.253Z,100379.85
2019-04-06T14:39:44.026Z,100375.70
2019-04-06T14:42:33.193Z,100375.41
2019-04-06T14:45:20.096Z,100371.27
2019-04-06T14:48:09.410Z,100374.89
2019-04-06T14:50:54.011Z,100382.06
2019-04-06T14:53:40.412Z,100374.33
2019-04-06T14:56:21.700Z,100373.22
2019-04-06T14:59:12.383Z,100374.82
2019-04-06T15:01:59.299Z,100370.91
2019-04-06T15:04:45.616Z,100373.10
2019-04-06T15:07:24.889Z,100376.65
2019-04-06T15:09:59.263Z,100375.00
2019-04-06T15:12:37.295Z,100378.03
2019-04-06T15:15:16.044Z,100374.14
2019-04-06T15:17:56.149Z,100369.64
2019-04-06T15:20:41.017Z,100377.80
2019-04-06T15:23:26.791Z,100375.55
2019-04-06T15:26:07.873Z,100371.19
2019-04-06T15:28:50.690Z,100372.83
2019-04-06T15:31:47.447Z,100382.40
2019-04-06T15:34:41.731Z,100382.38
2019-04-06T15:37:14.818Z,100376.11
2019-04-06T15:39:56.711Z,100383.35
2019-04-06T15:42:34.600Z,100381.48
2019-04-06T15:45:40.301Z,100374.09
2019-04-06T15:48:20.822Z,100386.77
2019-04-06T15:51:12.087Z,100374.91
2019-04-06T15:54:02.429Z,100379.30
2019-04-06T15:56:52.955Z,100381.20
2019-04-06T15:59:40.869Z,100378.73
2019-04-06T16:02:31.593Z,100384.27
2019-04-06T16:05:13.347Z,100385.91
2019-04-06T16:07:49.316Z,100390.06
2019-04-06T16:10:40.308Z,100385.59
2019-04-06T16:13:15.815Z,100386.00
2019-04-06T16:15:48.743Z,100395.73
2019-04-06T16:18:36.533Z,100392.66
2019-04-06T16:21:15.781Z,100398.12
2019-04-06T16:24:02.231Z,100395.06
2019-04-06T16:26:46.347Z,100399.67
2019-04-06T16:29:45.838Z,100400.95
2019-04-06T16:32:36.258Z,100406.59
2019-04-06T16:35:13.762Z,100413.36
2019-04-06T16:37:48.944Z,100414.38
2019-04-06T16:40:29.582Z,100417.61
2019-04-06T16:43:06.977Z,100414.72
2019-04-06T16:45:47.031Z,100415.97
2019-04-06T16:48:41.153Z,100419.06
2019-04-06T16:51:18.679Z,100409.32
2019-04-06T16:53:56.272Z,100412.70
2019-04-06T16:56:30.707Z,100409.58
2019-04-06T16:59:05.913Z,100413.02
2019-04-06T17:01:39.466Z,100407.95
2019-04-06T17:04:13.604Z,100410.02
2019-04-06T17:07:01.717Z,100416.22
2019-04-06T17:10:04.427Z,100424.33
2019-04-06T17:13:04.146Z,100415.70
2019-04-06T17:15:51.672Z,100424.64
2019-04-06T17:18:37.827Z,100419.87
2019-04-06T17:21:25.144Z,100425.80
2019-04-06T17:24:15.691Z,100425.66
2019-04-06T17:27:02.415Z,100430.48
2019-04-06T17:29:41.617Z,100438.82
2019-04-06T17:32:33.922Z,100434.34
2019-04-06T17:35:09.866Z,100440.52
2019-04-06T17:37:47.688Z,100440.21
2019-04-06T17:40:27.953Z,100446.00
2019-04-06T17:43:14.149Z,100448.73
2019-04-06T17:46:08.291Z,100449.83
2019-04-06T17:48:51.942Z,100452.31
2019-04-06T17:51:44.023Z,100451.36
2019-04-06T17:54:31.113Z,100453.09
2019-04-06T17:57:17.883Z,100452.09
2019-04-06T18:00:02.920Z,100449.97
2019-04-06T18:02:50.896Z,100459.59
2019-04-06T18:05:38.607Z,100457.00
2019-04-06T18:08:41.537Z,100458.45
2019-04-06T18:11:28.062Z,100454.48
2019-04-06T18:13:56.778Z,100451.45
2019-04-06T18:16:29.358Z,100461.13
2019-04-06T18:18:57.925Z,100459.58
2019-04-06T18:21:26.396Z,100463.22
2019-04-06T18:23:55.271Z,100460.58
2019-04-06T18:26:23.852Z,100465.63
2019-04-06T18:28:52.749Z,100469.92
2019-04-06T18:31:44.929Z,100466.99
2019-04-06T18:34:13.713Z,100468.23
2019-04-06T18:36:55.611Z,100486.45
2019-04-06T18:39:24.336Z,100484.36
2019-04-06T18:41:53.565Z,100491.83
2019-04-06T18:44:23.062Z,100491.69
2019-04-06T18:46:51.850Z,100501.95
2019-04-06T18:49:20.390Z,100498.27
2019-04-06T18:51:49.008Z,100495.09
2019-04-06T18:54:17.505Z,100498.97
2019-04-06T18:56:45.935Z,100503.48
2019-04-06T18:59:15.154Z,100500.85
2019-04-06T19:01:43.726Z,100496.27
2019-04-06T19:04:12.302Z,100506.51
2019-04-06T19:06:40.814Z,100508.56
2019-04-06T19:09:20.663Z,100517.20
2019-04-06T19:11:40.834Z,100520.02
2019-04-06T19:14:11.117Z,100506.83
2019-04-06T19:16:39.654Z,100508.36
2019-04-06T19:19:08.131Z,100509.64
2019-04-06T19:21:36.600Z,100506.69
2019-04-06T19:24:05.515Z,100514.95
2019-04-06T19:26:34.080Z,100508.82
2019-04-06T19:29:03.112Z,100508.98
2019-04-06T19:31:31.724Z,100506.62
2019-04-06T19:34:00.581Z,100507.51
2019-04-06T19:36:29.539Z,100512.28
2019-04-06T19:38:58.120Z,100510.03
2019-04-06T19:41:27.049Z,100514.84
2019-04-06T19:43:55.666Z,100520.45
2019-04-06T19:46:24.724Z,100512.66
2019-04-06T19:48:53.295Z,100513.62
2019-04-06T19:51:21.804Z,100513.27
2019-04-06T19:53:50.306Z,100513.09
2019-04-06T19:56:18.782Z,100509.53
2019-04-06T19:58:54.999Z,100515.73
2019-04-06T20:01:23.440Z,100514.20
2019-04-06T20:03:52.688Z,100510.64
2019-04-06T20:06:21.508Z,100513.00
2019-04-06T20:08:50.007Z,100513.52
2019-04-06T20:11:19.195Z,100518.36
2019-04-06T20:13:47.968Z,100516.68
2019-04-06T20:16:16.458Z,100514.83
2019-04-06T20:18:45.052Z,100520.95
2019-04-06T20:21:14.223Z,100519.27
2019-04-06T20:23:42.965Z,100515.77
2019-04-06T20:26:11.582Z,100513.47
2019-04-06T20:28:40.090Z,100511.50
2019-04-06T20:31:08.532Z,100511.94
2019-04-06T20:33:47.339Z,100507.48
2019-04-06T20:36:07.218Z,100505.41
2019-04-06T20:38:35.958Z,100507.64
2019-04-06T20:41:04.435Z,100506.86
2019-04-06T20:43:34.391Z,100503.84
2019-04-06T20:46:02.900Z,100502.77
2019-04-06T20:48:31.415Z,100501.73
2019-04-06T20:51:00.522Z,100503.66
2019-04-06T20:53:29.043Z,100505.89
2019-04-06T20:55:57.535Z,100507.01
2019-04-06T20:58:26.046Z,100506.50
2019-04-06T21:00:54.530Z,100507.25
2019-04-06T21:03:23.280Z,100506.84
2019-04-06T21:05:52.121Z,100505.19
2019-04-06T21:08:20.874Z,100504.87
2019-04-06T21:10:49.440Z,100505.62
2019-04-06T21:13:17.918Z,100502.52
2019-04-06T21:15:46.761Z,100503.88
2019-04-06T21:18:15.261Z,100508.42
2019-04-06T21:20:44.067Z,100509.88
2019-04-06T21:23:12.911Z,100512.31
2019-04-06T21:25:41.802Z,100509.73
2019-04-06T21:28:10.349Z,100510.57
2019-04-06T21:30:39.078Z,100509.95
2019-04-06T21:33:07.953Z,100508.83
2019-04-06T21:35:36.847Z,100508.92
2019-04-06T21:38:05.555Z,100512.00
2019-04-06T21:40:34.162Z,100507.60
2019-04-06T21:43:03.084Z,100509.28
2019-04-06T21:45:31.996Z,100505.17
2019-04-06T21:48:00.545Z,100505.81
2019-04-06T21:50:29.338Z,100501.84
2019-04-06T21:52:57.851Z,100502.81
2019-04-06T21:55:26.363Z,100501.45
2019-04-06T21:57:55.334Z,100510.02
2019-04-06T22:00:44.971Z,100512.64
2019-04-06T22:03:13.934Z,100507.20
2019-04-06T22:05:42.419Z,100500.73
2019-04-06T22:08:10.885Z,100507.52
2019-04-06T22:10:39.514Z,100506.49
2019-04-06T22:13:08.387Z,100498.75
2019-04-06T22:15:37.299Z,100505.36
2019-04-06T22:18:06.209Z,100505.67
2019-04-06T22:20:34.767Z,100501.83
2019-04-06T22:23:03.827Z,100500.04
2019-04-06T22:25:32.479Z,100499.55
2019-04-06T22:28:01.011Z,100508.22
2019-04-06T22:30:29.487Z,100495.56
2019-04-06T22:32:57.999Z,100496.50
2019-04-06T22:35:26.513Z,100495.77
2019-04-06T22:37:56.187Z,100498.06
2019-04-06T22:40:24.994Z,100493.66
2019-04-06T22:42:54.122Z,100491.06
2019-04-06T22:45:24.127Z,100493.30
2019-04-06T22:47:53.096Z,100487.95
2019-04-06T22:50:22.025Z,100493.50
2019-04-06T22:52:50.570Z,100490.46
2019-04-06T22:55:19.066Z,100487.67
2019-04-06T22:57:47.781Z,100488.81
2019-04-06T23:00:45.437Z,100490.06
2019-04-06T23:03:31.953Z,100491.84
2019-04-06T23:06:04.075Z,100490.38
2019-04-06T23:08:32.640Z,100491.42
2019-04-06T23:11:01.385Z,100488.83
2019-04-06T23:13:30.254Z,100490.08
2019-04-06T23:15:59.293Z,100493.86
2019-04-06T23:18:27.795Z,100491.66
2019-04-06T23:20:56.514Z,100494.89
2019-04-06T23:23:25.065Z,100492.30
2019-04-06T23:25:54.102Z,100492.20
2019-04-06T23:28:22.677Z,100494.27
2019-04-06T23:30:51.147Z,100496.14
2019-04-06T23:33:20.067Z,100492.92
2019-04-06T23:35:48.573Z,100487.81
2019-04-06T23:38:17.063Z,100487.71
2019-04-06T23:40:45.537Z,100491.56
2019-04-06T23:43:14.007Z,100492.92
2019-04-06T23:45:42.518Z,100491.45
2019-04-06T23:48:11.027Z,100492.52
2019-04-06T23:50:39.592Z,100487.68
2019-04-06T23:53:08.064Z,100489.03
2019-04-06T23:55:36.629Z,100493.00
2019-04-06T23:58:05.041Z,100490.29
